createdAt,value
2018-10-19T00:00:55.888Z,16.56
2018-10-19T00:03:38.460Z,16.43
2018-10-19T00:04:38.321Z,16.46
2018-10-19T00:05:41.087Z,16.57
2018-10-19T00:08:23.960Z,16.43
2018-10-19T00:09:22.784Z,16.43
2018-10-19T00:13:48.752Z,16.46
2018-10-19T00:14:49.359Z,16.41
2018-10-19T00:17:34.896Z,16.27
2018-10-19T00:18:33.908Z,16.41
2018-10-19T00:21:14.319Z,16.34
2018-10-19T00:22:14.417Z,16.49
2018-10-19T00:23:15.832Z,16.43
2018-10-19T00:24:14.354Z,16.39
2018-10-19T00:26:55.991Z,16.31
2018-10-19T00:27:56.330Z,16.28
2018-10-19T00:28:55.836Z,16.27
2018-10-19T00:29:53.577Z,16.42
2018-10-19T00:30:52.521Z,16.39
2018-10-19T00:36:19.834Z,16.28
2018-10-19T00:37:19.948Z,16.45
2018-10-19T00:39:46.432Z,16.28
2018-10-19T00:40:46.454Z,16.07
2018-10-19T00:42:43.344Z,16.27
2018-10-19T00:46:51.510Z,16.12
2018-10-19T00:49:34.009Z,16.05
2018-10-19T00:53:18.155Z,16.27
2018-10-19T00:56:02.363Z,16.23
2018-10-19T00:58:44.028Z,16.17
2018-10-19T01:05:14.120Z,15.93
2018-10-19T01:06:14.180Z,15.96
2018-10-19T01:20:57.563Z,15.87
2018-10-19T01:21:55.959Z,15.9
2018-10-19T01:22:58.179Z,15.82
2018-10-19T01:23:58.552Z,15.82
2018-10-19T01:24:59.548Z,15.86
2018-10-19T01:25:59.054Z,15.8
2018-10-19T01:27:01.383Z,15.74
2018-10-19T01:28:00.793Z,15.8
2018-10-19T01:29:00.999Z,15.68
2018-10-19T01:30:03.063Z,15.54
2018-10-19T01:31:04.141Z,15.57
2018-10-19T01:32:04.066Z,15.56
2018-10-19T01:33:02.256Z,15.6
2018-10-19T01:34:00.893Z,15.64
2018-10-19T01:35:00.162Z,15.72
2018-10-19T01:35:59.739Z,15.74
2018-10-19T01:37:00.228Z,15.67
2018-10-19T01:38:00.758Z,15.59
2018-10-19T01:39:00.621Z,15.57
2018-10-19T01:40:00.057Z,15.53
2018-10-19T01:40:59.035Z,15.59
2018-10-19T01:41:59.761Z,15.59
2018-10-19T01:43:01.642Z,15.67
2018-10-19T01:44:02.058Z,15.67
2018-10-19T01:45:01.086Z,15.75
2018-10-19T01:46:03.774Z,15.74
2018-10-19T01:47:03.235Z,15.6
2018-10-19T01:48:03.769Z,15.67
2018-10-19T01:49:03.247Z,15.75
2018-10-19T01:50:02.222Z,15.64
2018-10-19T01:51:03.123Z,15.54
2018-10-19T01:52:04.632Z,15.57
2018-10-19T01:53:03.315Z,15.57
2018-10-19T01:54:02.087Z,15.74
2018-10-19T01:55:02.090Z,15.86
2018-10-19T01:56:00.844Z,15.83
2018-10-19T01:56:59.875Z,15.83
2018-10-19T01:58:00.089Z,15.9
2018-10-19T01:59:13.279Z,15.87
2018-10-19T02:00:13.567Z,15.86
2018-10-19T02:01:12.928Z,15.84
2018-10-19T02:02:12.247Z,15.89
2018-10-19T02:03:14.185Z,15.89
2018-10-19T02:04:12.894Z,15.87
2018-10-19T02:05:12.000Z,15.94
2018-10-19T02:06:10.876Z,15.78
2018-10-19T02:07:12.276Z,15.9
2018-10-19T02:08:11.567Z,15.67
2018-10-19T02:09:15.292Z,15.62
2018-10-19T02:12:02.184Z,15.38
2018-10-19T02:15:35.674Z,15.32
2018-10-19T02:16:35.808Z,15.23
2018-10-19T02:18:35.755Z,15.41
2018-10-19T02:23:03.200Z,15.09
2018-10-19T02:25:02.193Z,14.95
2018-10-19T02:27:43.247Z,15.34
2018-10-19T02:28:46.361Z,15.46
2018-10-19T02:34:50.295Z,15.02
2018-10-19T02:35:51.275Z,15.07
2018-10-19T02:38:32.573Z,15.07
2018-10-19T02:39:33.522Z,15.13
2018-10-19T02:43:56.314Z,15.02
2018-10-19T02:46:36.092Z,15.11
2018-10-19T02:52:04.866Z,15.1
2018-10-19T02:56:37.171Z,15.16
2018-10-19T03:01:05.265Z,15.27
2018-10-19T03:02:06.762Z,15.36
2018-10-19T03:05:54.240Z,15.19
2018-10-19T03:12:26.480Z,14.96
2018-10-19T03:13:27.017Z,15.06
2018-10-19T03:16:07.039Z,14.77
2018-10-19T03:17:08.119Z,14.91
2018-10-19T03:19:43.203Z,14.95
2018-10-19T03:25:21.196Z,14.83
2018-10-19T03:26:25.874Z,14.86
2018-10-19T03:29:49.098Z,14.89
2018-10-19T03:34:15.268Z,15.03
2018-10-19T03:35:17.036Z,15.07
2018-10-19T03:36:17.347Z,15.06
2018-10-19T03:38:57.588Z,14.99
2018-10-19T03:41:50.420Z,14.52
2018-10-19T03:42:51.504Z,14.61
2018-10-19T03:43:50.512Z,14.61
2018-10-19T03:44:51.350Z,14.75
2018-10-19T03:47:34.400Z,14.69
2018-10-19T03:48:34.944Z,14.68
2018-10-19T03:49:36.781Z,14.73
2018-10-19T03:50:40.852Z,14.84
2018-10-19T03:51:41.908Z,14.84
2018-10-19T03:52:42.859Z,14.83
2018-10-19T03:55:25.423Z,14.8
2018-10-19T03:56:24.863Z,14.83
2018-10-19T03:57:26.355Z,14.68
2018-10-19T03:58:24.903Z,14.64
2018-10-19T03:59:23.735Z,14.64
2018-10-19T04:00:25.021Z,14.61
2018-10-19T04:03:05.605Z,14.61
2018-10-19T04:04:05.885Z,14.57
2018-10-19T04:06:12.061Z,14.88
2018-10-19T04:18:28.634Z,14.84
2018-10-19T04:24:30.456Z,14.88
2018-10-19T04:28:14.836Z,15.09
2018-10-19T04:30:56.336Z,14.91
2018-10-19T04:33:38.048Z,14.81
2018-10-19T04:34:38.399Z,14.78
2018-10-19T04:37:19.341Z,14.54
2018-10-19T04:40:01.677Z,14.5
2018-10-19T04:41:05.391Z,14.61
2018-10-19T04:44:54.866Z,14.72
2018-10-19T04:45:54.839Z,14.78
2018-10-19T04:49:34.843Z,14.77
2018-10-19T04:50:33.022Z,14.8
2018-10-19T04:51:33.910Z,14.78
2018-10-19T04:55:56.512Z,14.54
2018-10-19T04:58:38.376Z,14.5
2018-10-19T05:04:04.893Z,14.7
2018-10-19T05:05:04.420Z,14.81
2018-10-19T05:06:03.464Z,14.78
2018-10-19T05:07:04.350Z,14.43
2018-10-19T05:08:03.863Z,14.4
2018-10-19T05:09:01.410Z,14.6
2018-10-19T05:11:27.191Z,14.32
2018-10-19T05:12:31.881Z,14.37
2018-10-19T05:20:22.360Z,14.24
2018-10-19T05:23:07.369Z,14.14
2018-10-19T05:25:50.423Z,14.4
2018-10-19T05:26:50.358Z,14.55
2018-10-19T05:27:50.448Z,14.52
2018-10-19T05:31:30.974Z,15.07
2018-10-19T05:32:30.561Z,15.03
2018-10-19T05:33:30.859Z,15.07
2018-10-19T05:36:10.337Z,15.03
2018-10-19T05:37:10.969Z,15.07
2018-10-19T05:38:14.003Z,15.35
2018-10-19T05:39:14.876Z,15.38
2018-10-19T05:42:55.072Z,14.77
2018-10-19T05:45:38.370Z,14.89
2018-10-19T05:46:35.863Z,14.92
2018-10-19T05:47:35.868Z,14.92
2018-10-19T05:48:34.348Z,14.81
2018-10-19T05:49:36.868Z,15.06
2018-10-19T05:51:34.393Z,15.11
2018-10-19T05:54:00.085Z,15.06
2018-10-19T05:54:58.920Z,14.96
2018-10-19T05:56:01.398Z,15.17
2018-10-19T05:57:01.587Z,15.32
2018-10-19T05:58:00.539Z,15.2
2018-10-19T06:23:12.143Z,16.25
2018-10-19T06:24:12.609Z,16.31
2018-10-19T06:25:13.038Z,16.24
2018-10-19T06:26:13.201Z,16.11
2018-10-19T06:27:12.039Z,16.38
2018-10-19T06:28:11.329Z,16.31
2018-10-19T06:29:14.036Z,16.28
2018-10-19T06:30:15.418Z,16.31
2018-10-19T06:31:15.053Z,16.48
2018-10-19T06:33:40.737Z,16.48
2018-10-19T06:34:39.798Z,16.42
2018-10-19T06:37:20.487Z,16.58
2018-10-19T06:40:07.838Z,16.75
2018-10-19T06:41:08.312Z,16.6
2018-10-19T06:42:08.218Z,16.75
2018-10-19T06:44:34.504Z,16.56
2018-10-19T06:45:35.136Z,16.57
2018-10-19T06:50:58.603Z,16.52
2018-10-19T06:56:03.791Z,16.83
2018-10-19T06:57:05.838Z,16.79
2018-10-19T06:58:04.139Z,16.81
2018-10-19T07:00:45.642Z,17.14
2018-10-19T07:01:51.779Z,17.19
2018-10-19T07:02:55.286Z,17.08
2018-10-19T07:03:57.147Z,16.5
2018-10-19T07:04:58.348Z,16.76
2018-10-19T07:06:01.171Z,17.07
2018-10-19T07:07:01.072Z,17.31
2018-10-19T07:08:02.567Z,17.46
2018-10-19T07:09:01.771Z,17.46
2018-10-19T07:10:03.663Z,16.7
2018-10-19T07:12:45.146Z,16.12
2018-10-19T07:13:46.545Z,16.24
2018-10-19T07:14:45.663Z,16.24
2018-10-19T07:21:43.310Z,16.67
2018-10-19T07:22:43.077Z,16.7
2018-10-19T07:47:58.148Z,17.41
2018-10-19T07:48:56.509Z,17.43
2018-10-19T07:49:58.938Z,17.48
2018-10-19T07:50:57.821Z,17.46
2018-10-19T07:51:57.352Z,17.26
2018-10-19T07:52:59.733Z,17.01
2018-10-19T07:54:00.968Z,17.01
2018-10-19T07:55:00.782Z,17.25
2018-10-19T07:56:05.949Z,17.4
2018-10-19T07:57:11.793Z,17.56
2018-10-19T07:58:15.063Z,17.4
2018-10-19T07:59:17.301Z,17.26
2018-10-19T08:00:23.426Z,17.44
2018-10-19T08:01:45.431Z,17.44
2018-10-19T08:02:51.485Z,17.25
2018-10-19T08:03:53.784Z,16.88
2018-10-19T08:06:14.199Z,17.11
2018-10-19T08:51:06.883Z,17.23
2018-10-19T08:53:51.189Z,17.43
2018-10-19T08:54:51.035Z,17.4
2018-10-19T08:55:51.036Z,17.38
2018-10-19T08:56:50.233Z,17.49
2018-10-19T08:57:49.070Z,17.72
2018-10-19T08:58:49.542Z,17.71
2018-10-19T08:59:48.388Z,17.77
2018-10-19T09:00:48.531Z,17.79
2018-10-19T09:01:47.801Z,17.86
2018-10-19T09:02:48.036Z,17.96
2018-10-19T09:06:29.543Z,17.93
2018-10-19T09:07:28.590Z,17.9
2018-10-19T09:08:27.323Z,17.51
2018-10-19T09:09:27.051Z,17.21
2018-10-19T09:10:26.103Z,17.46
2018-10-19T09:11:26.848Z,17.25
2018-10-19T09:12:33.585Z,17.26
2018-10-19T09:13:38.043Z,17.18
2018-10-19T09:17:25.027Z,17.26
2018-10-19T09:18:27.708Z,17.48
2018-10-19T09:19:26.198Z,17.36
2018-10-19T09:21:08.842Z,17.59
2018-10-19T09:22:07.402Z,17.51
2018-10-19T09:23:07.413Z,17.18
2018-10-19T09:24:13.853Z,17.37
2018-10-19T09:27:39.272Z,17.71
2018-10-19T09:28:45.833Z,17.89
2018-10-19T09:29:48.684Z,17.55
2018-10-19T09:32:41.511Z,17.36
2018-10-19T09:35:21.571Z,17.54
2018-10-19T09:39:26.453Z,17.54
2018-10-19T09:43:33.263Z,17.66
2018-10-19T09:45:54.941Z,18.02
2018-10-19T09:48:35.737Z,18.21
2018-10-19T09:50:13.756Z,17.87
2018-10-19T09:51:14.964Z,17.84
2018-10-19T09:54:39.712Z,18
2018-10-19T09:55:43.828Z,18
2018-10-19T09:56:46.444Z,18.15
2018-10-19T09:57:46.452Z,18.3
2018-10-19T10:00:29.189Z,18.11
2018-10-19T10:01:29.373Z,17.92
2018-10-19T10:02:30.916Z,18.15
2018-10-19T10:03:31.397Z,18.3
2018-10-19T10:07:14.084Z,18.45
2018-10-19T10:09:53.190Z,18.2
2018-10-19T10:13:37.218Z,18.39
2018-10-19T10:14:44.306Z,18.23
2018-10-19T10:15:42.824Z,18.1
2018-10-19T10:16:42.992Z,18.11
2018-10-19T10:17:44.347Z,18.14
2018-10-19T10:20:24.787Z,18.57
2018-10-19T10:21:23.786Z,18.55
2018-10-19T10:22:23.288Z,18.54
2018-10-19T10:25:04.882Z,18.52
2018-10-19T10:26:03.128Z,18.58
2018-10-19T10:27:05.789Z,18.82
2018-10-19T10:28:03.277Z,18.75
2018-10-19T10:29:03.304Z,18.72
2018-10-19T10:30:02.320Z,18.76
2018-10-19T10:31:02.335Z,18.82
2018-10-19T10:32:01.327Z,18.87
2018-10-19T10:33:00.879Z,18.69
2018-10-19T10:53:17.232Z,18.67
2018-10-19T10:54:17.023Z,18.82
2018-10-19T10:55:16.909Z,18.82
2018-10-19T10:56:16.404Z,18.82
2018-10-19T10:57:17.808Z,18.72
2018-10-19T10:58:15.887Z,18.73
2018-10-19T10:59:16.803Z,18.88
2018-10-19T11:00:16.315Z,19.02
2018-10-19T11:01:15.360Z,18.91
2018-10-19T11:02:14.832Z,18.75
2018-10-19T11:05:03.887Z,18.76
2018-10-19T11:06:03.362Z,18.69
2018-10-19T11:10:03.223Z,18.65
2018-10-19T11:11:02.108Z,18.55
2018-10-19T11:12:01.747Z,18.69
2018-10-19T11:13:03.221Z,18.78
2018-10-19T11:14:01.046Z,18.9
2018-10-19T11:16:41.723Z,18.87
2018-10-19T11:17:42.067Z,18.9
2018-10-19T11:18:42.860Z,18.92
2018-10-19T11:19:41.559Z,19
2018-10-19T11:20:41.153Z,18.84
2018-10-19T11:21:39.648Z,18.95
2018-10-19T11:24:21.372Z,18.9
2018-10-19T11:25:22.418Z,18.65
2018-10-19T11:26:22.525Z,18.75
2018-10-19T11:27:23.770Z,18.75
2018-10-19T11:28:29.152Z,18.67
2018-10-19T11:29:27.776Z,18.75
2018-10-19T11:31:09.739Z,18.88
2018-10-19T11:32:09.196Z,18.95
2018-10-19T11:34:48.915Z,18.9
2018-10-19T11:35:49.655Z,18.9
2018-10-19T11:36:48.932Z,18.98
2018-10-19T11:37:48.715Z,18.88
2018-10-19T11:40:28.583Z,19.04
2018-10-19T11:43:12.907Z,19.14
2018-10-19T11:44:11.336Z,18.99
2018-10-19T11:45:10.408Z,18.99
2018-10-19T11:46:12.893Z,19.06
2018-10-19T11:47:11.356Z,18.95
2018-10-19T11:49:00.345Z,19.06
2018-10-19T11:50:00.795Z,19.08
2018-10-19T11:51:43.413Z,18.92
2018-10-19T11:52:43.014Z,19.07
2018-10-19T11:55:23.310Z,19.25
2018-10-19T11:56:24.692Z,19.07
2018-10-19T11:57:25.053Z,19.08
2018-10-19T11:58:27.407Z,19.07
2018-10-19T12:00:43.365Z,19.07
2018-10-19T12:01:45.133Z,18.94
2018-10-19T12:02:46.124Z,18.99
2018-10-19T12:03:45.425Z,19.08
2018-10-19T12:04:43.935Z,19.06
2018-10-19T12:05:45.899Z,19.02
2018-10-19T12:06:46.569Z,19.08
2018-10-19T12:07:45.802Z,19.14
2018-10-19T12:08:45.273Z,19.11
2018-10-19T12:09:46.634Z,19.02
2018-10-19T12:10:45.020Z,19.06
2018-10-19T12:11:45.207Z,19.06
2018-10-19T12:12:44.150Z,19.07
2018-10-19T12:13:43.141Z,19
2018-10-19T12:14:43.139Z,19.08
2018-10-19T12:15:49.292Z,19.11
2018-10-19T12:16:50.342Z,19.14
2018-10-19T12:17:49.631Z,19.23
2018-10-19T12:18:47.548Z,19.13
2018-10-19T12:19:47.502Z,19.22
2018-10-19T12:20:47.684Z,19.25
2018-10-19T12:21:45.724Z,19.21
2018-10-19T12:22:48.250Z,19.23
2018-10-19T12:23:48.287Z,19.19
2018-10-19T12:24:48.363Z,19.31
2018-10-19T12:25:50.236Z,19.4
2018-10-19T12:26:49.818Z,19.43
2018-10-19T12:27:49.703Z,19.46
2018-10-19T12:28:48.701Z,19.32
2018-10-19T12:29:50.638Z,19.44
2018-10-19T12:30:48.738Z,19.41
2018-10-19T12:31:48.737Z,19.41
2018-10-19T12:32:48.881Z,19.44
2018-10-19T12:33:48.454Z,19.48
2018-10-19T12:34:48.871Z,19.46
2018-10-19T12:35:47.441Z,19.51
2018-10-19T12:36:48.861Z,19.65
2018-10-19T12:37:47.733Z,19.59
2018-10-19T12:38:50.208Z,19.65
2018-10-19T12:39:50.657Z,19.63
2018-10-19T12:40:51.308Z,19.69
2018-10-19T12:41:51.656Z,19.69
2018-10-19T12:42:51.163Z,19.71
2018-10-19T12:43:52.723Z,19.63
2018-10-19T12:44:53.669Z,19.69
2018-10-19T12:45:53.243Z,19.68
2018-10-19T12:46:53.655Z,19.69
2018-10-19T12:48:01.648Z,19.76
2018-10-19T12:49:00.022Z,19.68
2018-10-19T12:50:03.266Z,19.78
2018-10-19T12:51:01.750Z,19.84
2018-10-19T12:52:01.861Z,19.81
2018-10-19T12:53:03.171Z,19.87
2018-10-19T12:54:02.789Z,19.78
2018-10-19T12:55:07.441Z,19.73
2018-10-19T12:56:11.767Z,19.71
2018-10-19T12:57:12.290Z,19.76
2018-10-19T12:58:10.999Z,19.87
2018-10-19T12:59:09.802Z,19.76
2018-10-19T13:00:09.163Z,19.74
2018-10-19T13:01:08.111Z,19.77
2018-10-19T13:02:08.079Z,19.71
2018-10-19T13:03:08.210Z,19.76
2018-10-19T13:04:07.407Z,19.74
2018-10-19T13:05:09.654Z,19.87
2018-10-19T13:06:55.487Z,19.81
2018-10-19T13:07:54.591Z,19.83
2018-10-19T13:08:54.228Z,19.8
2018-10-19T13:09:55.228Z,19.86
2018-10-19T13:12:34.612Z,19.95
2018-10-19T13:13:33.747Z,19.94
2018-10-19T13:16:14.162Z,19.81
2018-10-19T13:17:13.886Z,19.81
2018-10-19T13:18:14.355Z,19.87
2018-10-19T13:19:13.872Z,19.95
2018-10-19T13:20:13.777Z,20.02
2018-10-19T13:22:55.736Z,19.95
2018-10-19T13:25:35.307Z,19.91
2018-10-19T13:26:36.305Z,19.92
2018-10-19T13:27:38.245Z,19.94
2018-10-19T13:30:55.342Z,19.96
2018-10-19T13:33:36.742Z,19.92
2018-10-19T13:34:34.631Z,19.86
2018-10-19T13:35:35.236Z,19.95
2018-10-19T13:36:34.963Z,19.98
2018-10-19T13:37:35.311Z,19.92
2018-10-19T13:38:36.833Z,20.16
2018-10-19T13:39:36.792Z,20.11
2018-10-19T13:40:35.833Z,20.18
2018-10-19T13:41:35.733Z,20.17
2018-10-19T13:42:34.890Z,20.28
2018-10-19T13:43:35.303Z,20.05
2018-10-19T13:44:38.396Z,19.94
2018-10-19T13:45:37.794Z,20.06
2018-10-19T13:47:34.837Z,19.92
2018-10-19T13:48:35.030Z,19.95
2018-10-19T13:49:36.363Z,19.99
2018-10-19T13:50:35.031Z,19.96
2018-10-19T13:51:34.018Z,19.94
2018-10-19T13:52:39.772Z,19.98
2018-10-19T13:53:40.828Z,19.99
2018-10-19T13:54:43.323Z,19.83
2018-10-19T13:57:08.617Z,20.05
2018-10-19T13:58:09.343Z,20.05
2018-10-19T13:59:08.022Z,20.17
2018-10-19T14:03:28.400Z,20.17
2018-10-19T14:04:26.212Z,20.02
2018-10-19T14:05:27.449Z,20.14
2018-10-19T14:08:06.223Z,19.94
2018-10-19T14:10:48.905Z,20.08
2018-10-19T14:11:47.401Z,20.06
2018-10-19T14:12:51.047Z,20.08
2018-10-19T14:13:51.232Z,20.2
2018-10-19T14:18:18.210Z,19.99
2018-10-19T14:19:18.017Z,20.06
2018-10-19T14:21:59.445Z,20.08
2018-10-19T14:22:59.968Z,20.08
2018-10-19T14:24:56.114Z,19.92
2018-10-19T14:30:42.675Z,20.08
2018-10-19T14:33:24.595Z,20.06
2018-10-19T14:34:23.549Z,20.1
2018-10-19T14:37:08.554Z,20.05
2018-10-19T14:38:07.989Z,20.01
2018-10-19T14:39:07.552Z,20.13
2018-10-19T14:40:06.135Z,20.05
2018-10-19T14:42:47.024Z,19.94
2018-10-19T14:43:49.488Z,20.03
2018-10-19T14:45:38.661Z,20.11
2018-10-19T14:46:37.266Z,20.16
2018-10-19T14:47:36.847Z,19.94
2018-10-19T14:48:37.189Z,19.98
2018-10-19T14:49:37.347Z,19.92
2018-10-19T14:50:38.157Z,19.99
2018-10-19T14:51:37.140Z,20.08
2018-10-19T14:52:36.780Z,19.94
2018-10-19T14:53:36.239Z,20.1
2018-10-19T14:54:36.346Z,20.08
2018-10-19T14:55:36.616Z,19.99
2018-10-19T14:56:34.400Z,19.96
2018-10-19T14:57:34.370Z,20.1
2018-10-19T14:58:36.617Z,20.05
2018-10-19T14:59:34.367Z,20.06
2018-10-19T15:00:33.920Z,20.2
2018-10-19T15:01:35.270Z,20.03
2018-10-19T15:02:33.131Z,20.05
2018-10-19T15:03:32.625Z,20.14
2018-10-19T15:04:32.148Z,20.11
2018-10-19T15:05:31.689Z,20.17
2018-10-19T15:11:09.818Z,19.96
2018-10-19T15:12:09.851Z,20.03
2018-10-19T15:13:09.689Z,20.13
2018-10-19T15:14:10.126Z,20.17
2018-10-19T15:15:09.852Z,20.16
2018-10-19T15:16:08.507Z,20.06
2018-10-19T15:17:09.668Z,20.16
2018-10-19T15:18:09.218Z,20.24
2018-10-19T15:19:08.127Z,20.13
2018-10-19T15:20:11.751Z,20.17
2018-10-19T15:21:11.784Z,20.31
2018-10-19T15:22:12.637Z,20.14
2018-10-19T15:23:10.529Z,20.26
2018-10-19T15:24:10.771Z,20.16
2018-10-19T15:25:09.367Z,20.05
2018-10-19T15:26:07.942Z,20.06
2018-10-19T15:27:10.307Z,19.94
2018-10-19T15:28:11.778Z,20.03
2018-10-19T15:29:12.988Z,20.06
2018-10-19T15:30:12.787Z,19.98
2018-10-19T15:31:12.278Z,19.99
2018-10-19T15:32:12.700Z,19.86
2018-10-19T15:33:13.244Z,19.95
2018-10-19T15:34:12.655Z,19.96
2018-10-19T15:35:12.347Z,20.06
2018-10-19T15:36:12.251Z,20.06
2018-10-19T15:37:12.261Z,20.02
2018-10-19T15:38:10.596Z,19.94
2018-10-19T15:39:10.665Z,19.98
2018-10-19T15:40:15.196Z,19.88
2018-10-19T15:41:17.663Z,19.98
2018-10-19T15:42:19.838Z,19.92
2018-10-19T15:43:19.877Z,19.94
2018-10-19T15:44:20.496Z,19.96
2018-10-19T15:45:19.648Z,19.96
2018-10-19T15:46:17.750Z,19.94
2018-10-19T15:47:18.653Z,19.88
2018-10-19T15:48:17.639Z,19.91
2018-10-19T15:49:18.147Z,19.87
2018-10-19T15:50:17.641Z,19.86
2018-10-19T15:51:17.152Z,19.92
2018-10-19T15:52:17.138Z,19.87
2018-10-19T15:53:15.608Z,19.86
2018-10-19T15:54:15.690Z,19.84
2018-10-19T15:55:16.147Z,19.78
2018-10-19T15:56:17.342Z,19.71
2018-10-19T15:57:16.159Z,19.74
2018-10-19T15:58:16.670Z,19.77
2018-10-19T15:59:15.724Z,19.76
2018-10-19T16:00:15.721Z,19.76
2018-10-19T16:01:16.221Z,19.66
2018-10-19T16:02:17.247Z,19.78
2018-10-19T16:03:17.155Z,19.65
2018-10-19T16:04:16.853Z,19.69
2018-10-19T16:05:17.781Z,19.68
2018-10-19T16:06:17.649Z,19.71
2018-10-19T16:07:16.151Z,19.77
2018-10-19T16:08:16.948Z,19.74
2018-10-19T16:09:15.306Z,19.65
2018-10-19T16:10:17.190Z,19.65
2018-10-19T16:11:18.078Z,19.61
2018-10-19T16:13:03.678Z,19.62
2018-10-19T16:14:04.692Z,19.56
2018-10-19T16:15:23.795Z,19.58
2018-10-19T16:16:25.684Z,19.59
2018-10-19T16:17:24.452Z,19.56
2018-10-19T16:21:51.691Z,19.47
2018-10-19T16:26:19.333Z,19.39
2018-10-19T16:30:43.016Z,19.32
2018-10-19T16:33:38.799Z,19.41
2018-10-19T16:34:39.273Z,19.4
2018-10-19T16:35:38.510Z,19.4
2018-10-19T16:36:38.700Z,19.39
2018-10-19T16:37:38.120Z,19.37
2018-10-19T16:38:38.702Z,19.33
2018-10-19T16:39:39.723Z,19.44
2018-10-19T16:40:41.211Z,19.33
2018-10-19T16:41:40.210Z,19.31
2018-10-19T16:42:40.193Z,19.37
2018-10-19T16:45:21.372Z,19.23
2018-10-19T16:46:22.441Z,19.26
2018-10-19T16:47:21.797Z,19.18
2018-10-19T16:48:21.698Z,19.29
2018-10-19T16:49:22.018Z,19.25
2018-10-19T16:52:06.788Z,19.14
2018-10-19T16:54:46.968Z,19.13
2018-10-19T16:55:47.373Z,19.21
2018-10-19T17:00:14.918Z,19.14
2018-10-19T17:01:15.218Z,19.14
2018-10-19T17:02:13.301Z,19.08
2018-10-19T17:04:55.275Z,18.99
2018-10-19T17:07:35.709Z,18.98
2018-10-19T17:08:35.727Z,19.06
2018-10-19T17:12:22.716Z,18.98
2018-10-19T17:13:24.381Z,18.92
2018-10-19T17:14:25.024Z,18.85
2018-10-19T17:15:28.159Z,18.85
2018-10-19T17:16:26.754Z,18.82
2018-10-19T17:33:15.398Z,18.81
2018-10-19T17:34:17.719Z,18.87
2018-10-19T17:35:14.720Z,18.88
2018-10-19T17:36:17.721Z,18.82
2018-10-19T17:38:57.089Z,18.87
2018-10-19T17:39:56.440Z,18.78
2018-10-19T17:40:58.524Z,18.87
2018-10-19T17:41:58.098Z,18.82
2018-10-19T17:43:02.915Z,18.82
2018-10-19T17:44:03.258Z,18.9
2018-10-19T17:45:04.671Z,18.91
2018-10-19T17:48:48.149Z,18.9
2018-10-19T17:49:47.746Z,18.87
2018-10-19T17:50:46.890Z,18.87
2018-10-19T17:51:45.733Z,18.9
2018-10-19T17:52:45.221Z,18.76
2018-10-19T17:53:49.882Z,18.76
2018-10-19T17:54:52.779Z,18.76
2018-10-19T17:56:00.235Z,18.67
2018-10-19T17:56:59.244Z,18.72
2018-10-19T17:57:58.239Z,18.7
2018-10-19T17:58:58.281Z,18.67
2018-10-19T17:59:57.904Z,18.62
2018-10-19T18:00:57.124Z,18.65
2018-10-19T18:01:58.233Z,18.66
2018-10-19T18:02:56.943Z,18.65
2018-10-19T18:03:55.470Z,18.63
2018-10-19T18:04:55.046Z,18.6
2018-10-19T18:07:31.488Z,18.62
2018-10-19T18:08:29.182Z,18.55
2018-10-19T18:09:28.867Z,18.54
2018-10-19T18:10:28.996Z,18.54
2018-10-19T18:11:27.245Z,18.62
2018-10-19T18:12:27.175Z,18.62
2018-10-19T18:13:26.497Z,18.54
2018-10-19T18:14:26.006Z,18.52
2018-10-19T18:15:26.133Z,18.5
2018-10-19T18:16:29.000Z,18.57
2018-10-19T18:17:29.516Z,18.55
2018-10-19T18:18:27.215Z,18.58
2018-10-19T18:19:28.572Z,18.55
2018-10-19T18:20:28.286Z,18.58
2018-10-19T18:21:29.858Z,18.54
2018-10-19T18:22:30.634Z,18.57
2018-10-19T18:23:28.516Z,18.6
2018-10-19T18:24:28.991Z,18.62
2018-10-19T18:25:28.546Z,18.6
2018-10-19T18:26:29.541Z,18.48
2018-10-19T18:27:29.016Z,18.51
2018-10-19T18:28:31.002Z,18.51
2018-10-19T18:29:31.509Z,18.51
2018-10-19T18:30:31.510Z,18.41
2018-10-19T18:31:31.020Z,18.45
2018-10-19T18:32:30.550Z,18.42
2018-10-19T18:33:30.807Z,18.44
2018-10-19T18:34:30.835Z,18.36
2018-10-19T18:35:30.893Z,18.42
2018-10-19T18:36:31.538Z,18.41
2018-10-19T18:37:30.887Z,18.36
2018-10-19T18:38:31.876Z,18.36
2018-10-19T18:39:31.501Z,18.41
2018-10-19T18:40:32.093Z,18.45
2018-10-19T18:41:34.043Z,18.37
2018-10-19T18:42:32.529Z,18.45
2018-10-19T18:43:30.926Z,18.39
2018-10-19T18:44:35.695Z,18.39
2018-10-19T18:45:37.036Z,18.45
2018-10-19T18:46:34.533Z,18.41
2018-10-19T18:47:33.124Z,18.36
2018-10-19T18:48:33.074Z,18.33
2018-10-19T18:49:31.595Z,18.32
2018-10-19T18:50:34.036Z,18.37
2018-10-19T18:51:35.337Z,18.44
2018-10-19T18:52:33.858Z,18.42
2018-10-19T18:53:34.520Z,18.26
2018-10-19T18:54:35.540Z,18.27
2018-10-19T18:55:35.516Z,18.3
2018-10-19T18:56:35.016Z,18.3
2018-10-19T18:57:41.553Z,18.26
2018-10-19T18:58:39.233Z,18.3
2018-10-19T18:59:38.663Z,18.32
2018-10-19T19:00:43.625Z,18.3
2018-10-19T19:01:43.543Z,18.27
2018-10-19T19:02:42.648Z,18.3
2018-10-19T19:03:42.547Z,18.27
2018-10-19T19:04:45.633Z,18.33
2018-10-19T19:05:44.522Z,18.26
2018-10-19T19:07:29.597Z,18.33
2018-10-19T19:08:31.106Z,18.23
2018-10-19T19:09:29.738Z,18.17
2018-10-19T19:10:29.086Z,18.23
2018-10-19T19:11:28.454Z,18.15
2018-10-19T19:12:31.129Z,18.2
2018-10-19T19:13:30.844Z,18.25
2018-10-19T19:14:29.598Z,18.18
2018-10-19T19:15:31.140Z,18.07
2018-10-19T19:16:29.668Z,18.14
2018-10-19T19:17:30.094Z,18.15
2018-10-19T19:18:28.604Z,18.1
2018-10-19T19:19:27.139Z,18.11
2018-10-19T19:20:25.753Z,18.08
2018-10-19T19:21:26.849Z,18.07
2018-10-19T19:22:26.749Z,18.02
2018-10-19T19:23:25.834Z,17.97
2018-10-19T19:24:26.103Z,17.92
2018-10-19T19:25:27.128Z,17.93
2018-10-19T19:27:28.301Z,17.95
2018-10-19T19:28:28.270Z,17.92
2018-10-19T19:29:30.032Z,17.97
2018-10-19T19:30:31.317Z,17.92
2018-10-19T19:31:30.768Z,18.02
2018-10-19T19:32:30.730Z,17.92
2018-10-19T19:33:28.506Z,17.93
2018-10-19T19:34:27.106Z,17.86
2018-10-19T19:35:27.118Z,18.02
2018-10-19T19:36:27.184Z,17.87
2018-10-19T19:37:28.766Z,17.99
2018-10-19T19:38:27.389Z,17.87
2018-10-19T19:39:26.668Z,17.87
2018-10-19T19:40:25.243Z,17.96
2018-10-19T19:41:27.251Z,17.92
2018-10-19T19:42:27.388Z,17.86
2018-10-19T19:43:26.624Z,17.82
2018-10-19T19:44:27.232Z,17.86
2018-10-19T19:45:25.032Z,17.78
2018-10-19T19:46:24.275Z,17.79
2018-10-19T19:47:22.924Z,17.82
2018-10-19T19:48:21.494Z,17.9
2018-10-19T19:49:21.039Z,17.89
2018-10-19T19:50:19.575Z,17.78
2018-10-19T19:51:20.736Z,17.86
2018-10-19T19:52:17.752Z,17.74
2018-10-19T19:53:17.690Z,17.74
2018-10-19T19:54:18.946Z,17.79
2018-10-19T19:55:19.249Z,17.89
2018-10-19T19:56:17.614Z,17.84
2018-10-19T19:57:16.742Z,17.87
2018-10-19T19:58:17.348Z,17.81
2018-10-19T19:59:16.976Z,17.87
2018-10-19T20:00:16.288Z,17.86
2018-10-19T20:01:13.981Z,17.77
2018-10-19T20:02:15.334Z,17.74
2018-10-19T20:03:12.998Z,17.92
2018-10-19T20:04:13.807Z,17.82
2018-10-19T20:06:53.183Z,17.87
2018-10-19T20:07:53.076Z,17.86
2018-10-19T20:08:52.299Z,17.9
2018-10-19T20:09:51.229Z,17.82
2018-10-19T20:10:51.769Z,17.81
2018-10-19T20:11:51.261Z,17.74
2018-10-19T20:12:49.880Z,17.84
2018-10-19T20:13:48.374Z,17.86
2018-10-19T20:14:47.813Z,17.75
2018-10-19T20:15:47.814Z,17.7
2018-10-19T20:16:48.747Z,17.72
2018-10-19T20:17:46.414Z,17.72
2018-10-19T20:18:46.276Z,17.77
2018-10-19T20:19:44.923Z,17.74
2018-10-19T20:20:46.264Z,17.87
2018-10-19T20:21:45.845Z,17.77
2018-10-19T20:22:45.309Z,17.77
2018-10-19T20:23:45.265Z,17.89
2018-10-19T20:27:14.766Z,17.59
2018-10-19T20:28:12.915Z,17.54
2018-10-19T20:29:12.386Z,17.49
2018-10-19T20:30:11.782Z,17.46
2018-10-19T20:31:12.793Z,17.54
2018-10-19T20:32:12.256Z,17.51
2018-10-19T20:33:12.397Z,17.41
2018-10-19T20:34:12.351Z,17.33
2018-10-19T20:35:12.697Z,17.4
2018-10-19T20:36:12.770Z,17.46
2018-10-19T20:37:10.635Z,17.33
2018-10-19T20:38:09.859Z,17.23
2018-10-19T20:39:10.007Z,17.19
2018-10-19T20:40:15.802Z,17.36
2018-10-19T20:41:16.813Z,17.38
2018-10-19T20:42:16.315Z,17.33
2018-10-19T20:44:56.504Z,17.48
2018-10-19T20:45:57.440Z,17.43
2018-10-19T20:46:55.968Z,17.37
2018-10-19T20:47:55.231Z,17.34
2018-10-19T20:48:55.356Z,17.23
2018-10-19T20:49:55.342Z,17.08
2018-10-19T20:50:55.023Z,17.23
2018-10-19T20:51:57.278Z,17.34